sensor_id;sensor_type;location;lat;lon;timestamp;temperature;humidity
24338;DHT22;12457;50.832;4.346;2023-10-19T00:01:22;16.10;99.90
24338;DHT22;12457;50.832;4.346;2023-10-19T00:03:52;16.00;99.90
24338;DHT22;12457;50.832;4.346;2023-10-19T00:06:18;16.10;99.90
24338;DHT22;12457;50.832;4.346;2023-10-19T00:08:44;16.10;99.90
24338;DHT22;12457;50.832;4.346;2023-10-19T00:11:10;16.10;99.90
24338;DHT22;12457;50.832;4.346;2023-10-19T00:13:47;16.10;99.90
24338;DHT22;12457;50.832;4.346;2023-10-19T00:16:15;16.10;99.90
24338;DHT22;12457;50.832;4.346;2023-10-19T00:19:01;16.10;99.90
24338;DHT22;12457;50.832;4.346;2023-10-19T00:21:29;16.20;99.90
24338;DHT22;12457;50.832;4.346;2023-10-19T00:23:56;16.20;99.90
24338;DHT22;12457;50.832;4.346;2023-10-19T00:26:31;16.10;99.90
24338;DHT22;12457;50.832;4.346;2023-10-19T00:28:57;16.10;99.90
24338;DHT22;12457;50.832;4.346;2023-10-19T00:31:24;16.10;99.90
24338;DHT22;12457;50.832;4.346;2023-10-19T00:33:52;16.20;99.90
24338;DHT22;12457;50.832;4.346;2023-10-19T00:36:20;16.20;99.90
24338;DHT22;12457;50.832;4.346;2023-10-19T00:38:47;16.20;99.90
24338;DHT22;12457;50.832;4.346;2023-10-19T00:41:18;16.20;99.90
24338;DHT22;12457;50.832;4.346;2023-10-19T00:43:48;16.20;99.90
24338;DHT22;12457;50.832;4.346;2023-10-19T00:46:23;16.20;99.90
24338;DHT22;12457;50.832;4.346;2023-10-19T00:48:57;16.10;99.90
24338;DHT22;12457;50.832;4.346;2023-10-19T00:51:51;16.10;99.90
24338;DHT22;12457;50.832;4.346;2023-10-19T00:54:26;16.00;99.90
24338;DHT22;12457;50.832;4.346;2023-10-19T00:57:06;16.10;99.90
24338;DHT22;12457;50.832;4.346;2023-10-19T00:59:34;16.10;99.90
24338;DHT22;12457;50.832;4.346;2023-10-19T01:02:18;16.10;99.90
24338;DHT22;12457;50.832;4.346;2023-10-19T01:04:52;16.00;99.90
24338;DHT22;12457;50.832;4.346;2023-10-19T01:07:31;16.00;99.90
24338;DHT22;12457;50.832;4.346;2023-10-19T01:10:01;16.00;99.90
24338;DHT22;12457;50.832;4.346;2023-10-19T01:12:39;16.00;99.90
24338;DHT22;12457;50.832;4.346;2023-10-19T01:15:17;16.00;99.90
24338;DHT22;12457;50.832;4.346;2023-10-19T01:17:50;16.00;99.90
24338;DHT22;12457;50.832;4.346;2023-10-19T01:20:23;16.00;99.90
24338;DHT22;12457;50.832;4.346;2023-10-19T01:23:07;16.00;99.90
24338;DHT22;12457;50.832;4.346;2023-10-19T01:25:50;16.00;99.90
24338;DHT22;12457;50.832;4.346;2023-10-19T01:28:16;16.00;99.90
24338;DHT22;12457;50.832;4.346;2023-10-19T01:30:47;16.00;99.90
24338;DHT22;12457;50.832;4.346;2023-10-19T01:33:20;15.90;99.90
24338;DHT22;12457;50.832;4.346;2023-10-19T01:35:48;15.90;99.90
24338;DHT22;12457;50.832;4.346;2023-10-19T01:38:33;15.90;99.90
24338;DHT22;12457;50.832;4.346;2023-10-19T01:41:03;15.90;99.90
24338;DHT22;12457;50.832;4.346;2023-10-19T01:43:45;16.00;99.90
24338;DHT22;12457;50.832;4.346;2023-10-19T01:46:13;15.90;99.90
24338;DHT22;12457;50.832;4.346;2023-10-19T01:48:42;16.00;99.90
24338;DHT22;12457;50.832;4.346;2023-10-19T01:51:10;15.90;99.90
24338;DHT22;12457;50.832;4.346;2023-10-19T01:53:40;15.90;99.90
24338;DHT22;12457;50.832;4.346;2023-10-19T01:56:19;15.90;99.90
24338;DHT22;12457;50.832;4.346;2023-10-19T01:58:47;15.80;99.90
24338;DHT22;12457;50.832;4.346;2023-10-19T02:01:14;15.80;99.90
24338;DHT22;12457;50.832;4.346;2023-10-19T02:04:05;15.90;99.90
24338;DHT22;12457;50.832;4.346;2023-10-19T02:06:34;15.90;99.90
24338;DHT22;12457;50.832;4.346;2023-10-19T02:09:09;15.90;99.90
24338;DHT22;12457;50.832;4.346;2023-10-19T02:11:35;15.80;99.90
24338;DHT22;12457;50.832;4.346;2023-10-19T02:14:07;15.80;99.90
24338;DHT22;12457;50.832;4.346;2023-10-19T02:16:40;15.70;99.90
24338;DHT22;12457;50.832;4.346;2023-10-19T02:19:06;15.80;99.90
24338;DHT22;12457;50.832;4.346;2023-10-19T02:21:32;15.80;99.90
24338;DHT22;12457;50.832;4.346;2023-10-19T02:24:03;15.70;99.90
24338;DHT22;12457;50.832;4.346;2023-10-19T02:26:30;15.70;99.90
24338;DHT22;12457;50.832;4.346;2023-10-19T02:28:57;15.70;99.90
24338;DHT22;12457;50.832;4.346;2023-10-19T02:31:24;15.70;99.90
24338;DHT22;12457;50.832;4.346;2023-10-19T02:33:54;15.60;99.90
24338;DHT22;12457;50.832;4.346;2023-10-19T02:36:30;15.70;99.90
24338;DHT22;12457;50.832;4.346;2023-10-19T02:41:34;15.50;99.90
24338;DHT22;12457;50.832;4.346;2023-10-19T02:44:04;15.50;99.90
24338;DHT22;12457;50.832;4.346;2023-10-19T02:46:31;15.40;99.90
24338;DHT22;12457;50.832;4.346;2023-10-19T02:49:03;15.40;99.90
24338;DHT22;12457;50.832;4.346;2023-10-19T02:51:32;15.40;99.90
24338;DHT22;12457;50.832;4.346;2023-10-19T02:54:00;15.40;99.90
24338;DHT22;12457;50.832;4.346;2023-10-19T02:56:27;15.40;99.90
24338;DHT22;12457;50.832;4.346;2023-10-19T02:58:55;15.50;99.90
24338;DHT22;12457;50.832;4.346;2023-10-19T03:01:32;15.50;99.90
24338;DHT22;12457;50.832;4.346;2023-10-19T03:04:01;15.40;99.90
24338;DHT22;12457;50.832;4.346;2023-10-19T03:06:28;15.50;99.90
24338;DHT22;12457;50.832;4.346;2023-10-19T03:09:05;15.50;99.90
24338;DHT22;12457;50.832;4.346;2023-10-19T03:11:41;15.40;99.90
24338;DHT22;12457;50.832;4.346;2023-10-19T03:14:08;15.40;99.90
24338;DHT22;12457;50.832;4.346;2023-10-19T03:16:36;15.50;99.90
24338;DHT22;12457;50.832;4.346;2023-10-19T03:19:02;15.50;99.90
24338;DHT22;12457;50.832;4.346;2023-10-19T03:21:32;15.60;99.90
24338;DHT22;12457;50.832;4.346;2023-10-19T03:24:03;15.60;99.90
24338;DHT22;12457;50.832;4.346;2023-10-19T03:26:31;15.60;99.90
24338;DHT22;12457;50.832;4.346;2023-10-19T03:29:02;15.60;99.90
24338;DHT22;12457;50.832;4.346;2023-10-19T03:31:33;15.50;99.90
24338;DHT22;12457;50.832;4.346;2023-10-19T03:34:02;15.60;99.90
24338;DHT22;12457;50.832;4.346;2023-10-19T03:36:31;15.70;99.90
24338;DHT22;12457;50.832;4.346;2023-10-19T03:38:58;15.70;99.90
24338;DHT22;12457;50.832;4.346;2023-10-19T03:41:38;15.70;99.90
24338;DHT22;12457;50.832;4.346;2023-10-19T03:44:10;15.60;99.90
24338;DHT22;12457;50.832;4.346;2023-10-19T03:46:50;15.70;99.90
24338;DHT22;12457;50.832;4.346;2023-10-19T03:49:23;15.70;99.90
24338;DHT22;12457;50.832;4.346;2023-10-19T03:52:06;15.70;99.90
24338;DHT22;12457;50.832;4.346;2023-10-19T03:54:36;15.70;99.90
24338;DHT22;12457;50.832;4.346;2023-10-19T03:57:05;15.70;99.90
24338;DHT22;12457;50.832;4.346;2023-10-19T03:59:57;15.70;99.90
24338;DHT22;12457;50.832;4.346;2023-10-19T04:02:26;15.70;99.90
24338;DHT22;12457;50.832;4.346;2023-10-19T04:04:55;15.70;99.90
24338;DHT22;12457;50.832;4.346;2023-10-19T04:07:23;15.60;99.90
24338;DHT22;12457;50.832;4.346;2023-10-19T04:09:57;15.60;99.90
24338;DHT22;12457;50.832;4.346;2023-10-19T04:12:29;15.60;99.90
24338;DHT22;12457;50.832;4.346;2023-10-19T04:14:56;15.70;99.90
24338;DHT22;12457;50.832;4.346;2023-10-19T04:17:22;15.70;99.90
24338;DHT22;12457;50.832;4.346;2023-10-19T04:19:49;15.60;99.90
24338;DHT22;12457;50.832;4.346;2023-10-19T04:22:17;15.70;99.90
24338;DHT22;12457;50.832;4.346;2023-10-19T04:24:51;15.70;99.90
24338;DHT22;12457;50.832;4.346;2023-10-19T04:27:22;15.70;99.90
24338;DHT22;12457;50.832;4.346;2023-10-19T04:29:49;15.70;99.90
24338;DHT22;12457;50.832;4.346;2023-10-19T04:32:16;15.70;99.90
24338;DHT22;12457;50.832;4.346;2023-10-19T04:34:51;15.70;99.90
24338;DHT22;12457;50.832;4.346;2023-10-19T04:37:16;15.70;99.90
24338;DHT22;12457;50.832;4.346;2023-10-19T04:39:44;15.70;99.90
24338;DHT22;12457;50.832;4.346;2023-10-19T04:42:10;15.80;99.90
24338;DHT22;12457;50.832;4.346;2023-10-19T04:44:36;15.80;99.90
24338;DHT22;12457;50.832;4.346;2023-10-19T04:47:01;15.90;99.90
24338;DHT22;12457;50.832;4.346;2023-10-19T04:49:27;15.80;99.90
24338;DHT22;12457;50.832;4.346;2023-10-19T04:51:54;15.80;99.90
24338;DHT22;12457;50.832;4.346;2023-10-19T04:54:19;15.80;99.90
24338;DHT22;12457;50.832;4.346;2023-10-19T04:56:45;15.80;99.90
24338;DHT22;12457;50.832;4.346;2023-10-19T04:59:11;15.80;99.90
24338;DHT22;12457;50.832;4.346;2023-10-19T05:01:37;15.80;99.90
24338;DHT22;12457;50.832;4.346;2023-10-19T05:04:04;15.70;99.90
24338;DHT22;12457;50.832;4.346;2023-10-19T05:06:30;15.80;99.90
24338;DHT22;12457;50.832;4.346;2023-10-19T05:08:56;15.80;99.90
24338;DHT22;12457;50.832;4.346;2023-10-19T05:11:23;15.80;99.90
24338;DHT22;12457;50.832;4.346;2023-10-19T05:13:48;15.90;99.90
24338;DHT22;12457;50.832;4.346;2023-10-19T05:16:14;15.80;99.90
24338;DHT22;12457;50.832;4.346;2023-10-19T05:18:41;15.80;99.90
24338;DHT22;12457;50.832;4.346;2023-10-19T05:21:07;15.80;99.90
24338;DHT22;12457;50.832;4.346;2023-10-19T05:23:33;15.80;99.90
24338;DHT22;12457;50.832;4.346;2023-10-19T05:26:05;15.70;99.90
24338;DHT22;12457;50.832;4.346;2023-10-19T05:28:47;15.80;99.90
24338;DHT22;12457;50.832;4.346;2023-10-19T05:31:13;15.80;99.90
24338;DHT22;12457;50.832;4.346;2023-10-19T05:33:40;15.80;99.90
24338;DHT22;12457;50.832;4.346;2023-10-19T05:36:06;15.90;99.90
24338;DHT22;12457;50.832;4.346;2023-10-19T05:38:32;15.90;99.90
24338;DHT22;12457;50.832;4.346;2023-10-19T05:40:58;15.90;99.90
24338;DHT22;12457;50.832;4.346;2023-10-19T05:43:25;15.90;99.90
24338;DHT22;12457;50.832;4.346;2023-10-19T05:45:51;15.90;99.90
24338;DHT22;12457;50.832;4.346;2023-10-19T05:48:17;15.90;99.90
24338;DHT22;12457;50.832;4.346;2023-10-19T05:50:43;15.90;99.90
24338;DHT22;12457;50.832;4.346;2023-10-19T05:53:08;15.90;99.90
24338;DHT22;12457;50.832;4.346;2023-10-19T05:55:34;15.90;99.90
24338;DHT22;12457;50.832;4.346;2023-10-19T05:58:01;15.90;99.90
24338;DHT22;12457;50.832;4.346;2023-10-19T06:00:30;15.90;99.90
24338;DHT22;12457;50.832;4.346;2023-10-19T06:02:56;15.90;99.90
24338;DHT22;12457;50.832;4.346;2023-10-19T06:05:23;15.80;99.90
24338;DHT22;12457;50.832;4.346;2023-10-19T06:07:51;15.80;99.90
24338;DHT22;12457;50.832;4.346;2023-10-19T06:10:19;15.80;99.90
24338;DHT22;12457;50.832;4.346;2023-10-19T06:12:47;15.80;99.90
24338;DHT22;12457;50.832;4.346;2023-10-19T06:15:16;15.80;99.90
24338;DHT22;12457;50.832;4.346;2023-10-19T06:17:43;15.80;99.90
24338;DHT22;12457;50.832;4.346;2023-10-19T06:20:10;15.90;99.90
24338;DHT22;12457;50.832;4.346;2023-10-19T06:22:57;15.90;99.90
24338;DHT22;12457;50.832;4.346;2023-10-19T06:25:29;16.00;99.90
24338;DHT22;12457;50.832;4.346;2023-10-19T06:27:56;15.90;99.90
24338;DHT22;12457;50.832;4.346;2023-10-19T06:30:22;15.90;99.90
24338;DHT22;12457;50.832;4.346;2023-10-19T06:32:55;15.90;99.90
24338;DHT22;12457;50.832;4.346;2023-10-19T06:35:22;15.80;99.90
24338;DHT22;12457;50.832;4.346;2023-10-19T06:37:48;15.80;99.90
24338;DHT22;12457;50.832;4.346;2023-10-19T06:40:15;15.80;99.90
24338;DHT22;12457;50.832;4.346;2023-10-19T06:42:45;15.90;99.90
24338;DHT22;12457;50.832;4.346;2023-10-19T06:45:12;15.90;99.90
24338;DHT22;12457;50.832;4.346;2023-10-19T06:47:43;16.00;99.90
24338;DHT22;12457;50.832;4.346;2023-10-19T06:50:19;16.00;99.90
24338;DHT22;12457;50.832;4.346;2023-10-19T06:52:46;16.00;99.90
24338;DHT22;12457;50.832;4.346;2023-10-19T06:55:13;15.90;99.90
24338;DHT22;12457;50.832;4.346;2023-10-19T06:57:43;16.00;99.90
24338;DHT22;12457;50.832;4.346;2023-10-19T07:00:17;16.00;99.90
24338;DHT22;12457;50.832;4.346;2023-10-19T07:02:48;16.10;99.90
24338;DHT22;12457;50.832;4.346;2023-10-19T07:05:15;16.00;99.90
24338;DHT22;12457;50.832;4.346;2023-10-19T07:07:44;16.00;99.90
24338;DHT22;12457;50.832;4.346;2023-10-19T07:10:13;16.00;99.90
24338;DHT22;12457;50.832;4.346;2023-10-19T07:12:40;16.00;99.90
24338;DHT22;12457;50.832;4.346;2023-10-19T07:15:08;16.10;99.90
24338;DHT22;12457;50.832;4.346;2023-10-19T07:17:37;16.20;99.90
24338;DHT22;12457;50.832;4.346;2023-10-19T07:20:06;16.10;99.90
24338;DHT22;12457;50.832;4.346;2023-10-19T07:22:33;16.00;99.90
24338;DHT22;12457;50.832;4.346;2023-10-19T07:25:00;16.00;99.90
24338;DHT22;12457;50.832;4.346;2023-10-19T07:27:27;16.00;99.90
24338;DHT22;12457;50.832;4.346;2023-10-19T07:29:54;15.90;99.90
24338;DHT22;12457;50.832;4.346;2023-10-19T07:32:20;16.00;99.90
24338;DHT22;12457;50.832;4.346;2023-10-19T07:34:46;16.00;99.90
24338;DHT22;12457;50.832;4.346;2023-10-19T07:37:15;16.10;99.90
24338;DHT22;12457;50.832;4.346;2023-10-19T07:39:47;16.20;99.90
24338;DHT22;12457;50.832;4.346;2023-10-19T07:42:14;16.30;99.90
24338;DHT22;12457;50.832;4.346;2023-10-19T07:44:40;16.40;99.90
24338;DHT22;12457;50.832;4.346;2023-10-19T07:47:06;16.50;99.90
24338;DHT22;12457;50.832;4.346;2023-10-19T07:49:35;16.40;99.90
24338;DHT22;12457;50.832;4.346;2023-10-19T07:52:07;16.40;99.90
24338;DHT22;12457;50.832;4.346;2023-10-19T07:54:36;16.40;99.90
24338;DHT22;12457;50.832;4.346;2023-10-19T07:57:04;16.50;99.90
24338;DHT22;12457;50.832;4.346;2023-10-19T07:59:34;16.50;99.90
24338;DHT22;12457;50.832;4.346;2023-10-19T08:02:00;16.60;99.90
24338;DHT22;12457;50.832;4.346;2023-10-19T08:04:30;16.60;99.90
24338;DHT22;12457;50.832;4.346;2023-10-19T08:06:59;16.70;99.90
24338;DHT22;12457;50.832;4.346;2023-10-19T08:09:25;16.70;99.90
24338;DHT22;12457;50.832;4.346;2023-10-19T08:11:57;16.80;99.90
24338;DHT22;12457;50.832;4.346;2023-10-19T08:14:27;16.80;99.90
24338;DHT22;12457;50.832;4.346;2023-10-19T08:16:53;16.90;99.90
24338;DHT22;12457;50.832;4.346;2023-10-19T08:19:22;16.80;99.90
24338;DHT22;12457;50.832;4.346;2023-10-19T08:21:48;16.90;99.90
24338;DHT22;12457;50.832;4.346;2023-10-19T08:24:14;16.90;99.90
24338;DHT22;12457;50.832;4.346;2023-10-19T08:26:44;17.00;99.90
24338;DHT22;12457;50.832;4.346;2023-10-19T08:29:13;17.00;99.90
24338;DHT22;12457;50.832;4.346;2023-10-19T08:31:42;16.90;99.90
24338;DHT22;12457;50.832;4.346;2023-10-19T08:34:10;16.90;99.90
24338;DHT22;12457;50.832;4.346;2023-10-19T08:36:37;16.90;99.90
24338;DHT22;12457;50.832;4.346;2023-10-19T08:39:09;16.90;99.90
24338;DHT22;12457;50.832;4.346;2023-10-19T08:41:39;16.90;99.90
24338;DHT22;12457;50.832;4.346;2023-10-19T08:44:05;16.90;99.90
24338;DHT22;12457;50.832;4.346;2023-10-19T08:46:44;16.90;99.90
24338;DHT22;12457;50.832;4.346;2023-10-19T08:49:14;16.80;99.90
24338;DHT22;12457;50.832;4.346;2023-10-19T08:51:45;16.90;99.90
24338;DHT22;12457;50.832;4.346;2023-10-19T08:54:14;16.90;99.90
24338;DHT22;12457;50.832;4.346;2023-10-19T08:56:41;16.90;99.90
24338;DHT22;12457;50.832;4.346;2023-10-19T08:59:08;17.00;99.90
24338;DHT22;12457;50.832;4.346;2023-10-19T09:01:45;17.10;99.90
24338;DHT22;12457;50.832;4.346;2023-10-19T09:04:11;17.10;99.90
24338;DHT22;12457;50.832;4.346;2023-10-19T09:06:38;17.30;99.90
24338;DHT22;12457;50.832;4.346;2023-10-19T09:09:13;17.50;99.90
24338;DHT22;12457;50.832;4.346;2023-10-19T09:11:48;17.40;99.90
24338;DHT22;12457;50.832;4.346;2023-10-19T09:14:34;17.60;99.90
24338;DHT22;12457;50.832;4.346;2023-10-19T09:17:27;17.60;99.90
24338;DHT22;12457;50.832;4.346;2023-10-19T09:19:54;17.70;99.90
24338;DHT22;12457;50.832;4.346;2023-10-19T09:22:21;17.80;99.90
24338;DHT22;12457;50.832;4.346;2023-10-19T09:24:50;17.80;99.90
24338;DHT22;12457;50.832;4.346;2023-10-19T09:27:17;17.90;99.90
24338;DHT22;12457;50.832;4.346;2023-10-19T09:29:43;17.90;99.90
24338;DHT22;12457;50.832;4.346;2023-10-19T09:32:09;17.80;99.90
24338;DHT22;12457;50.832;4.346;2023-10-19T09:34:36;17.80;99.90
24338;DHT22;12457;50.832;4.346;2023-10-19T09:37:03;17.90;99.90
24338;DHT22;12457;50.832;4.346;2023-10-19T09:39:29;17.90;99.90
24338;DHT22;12457;50.832;4.346;2023-10-19T09:44:34;18.00;99.90
24338;DHT22;12457;50.832;4.346;2023-10-19T09:47:13;18.00;99.90
24338;DHT22;12457;50.832;4.346;2023-10-19T09:49:42;18.10;99.90
24338;DHT22;12457;50.832;4.346;2023-10-19T09:52:11;18.10;99.90
24338;DHT22;12457;50.832;4.346;2023-10-19T09:54:57;18.20;99.90
24338;DHT22;12457;50.832;4.346;2023-10-19T09:57:52;18.30;99.90
24338;DHT22;12457;50.832;4.346;2023-10-19T10:00:19;18.50;99.90
24338;DHT22;12457;50.832;4.346;2023-10-19T10:02:51;18.70;99.90
24338;DHT22;12457;50.832;4.346;2023-10-19T10:10:48;19.20;99.90
24338;DHT22;12457;50.832;4.346;2023-10-19T10:15:56;19.60;99.90
24338;DHT22;12457;50.832;4.346;2023-10-19T10:18:28;19.60;99.90
24338;DHT22;12457;50.832;4.346;2023-10-19T10:21:14;19.50;99.90
24338;DHT22;12457;50.832;4.346;2023-10-19T10:24:00;19.30;99.90
24338;DHT22;12457;50.832;4.346;2023-10-19T10:26:30;19.30;99.90
24338;DHT22;12457;50.832;4.346;2023-10-19T10:29:23;19.40;99.90
24338;DHT22;12457;50.832;4.346;2023-10-19T10:31:57;19.40;99.90
24338;DHT22;12457;50.832;4.346;2023-10-19T10:37:02;19.50;99.90
24338;DHT22;12457;50.832;4.346;2023-10-19T10:39:29;19.80;99.90
24338;DHT22;12457;50.832;4.346;2023-10-19T10:41:59;19.90;99.90
24338;DHT22;12457;50.832;4.346;2023-10-19T10:44:45;19.80;99.90
24338;DHT22;12457;50.832;4.346;2023-10-19T10:49:50;19.70;99.90
24338;DHT22;12457;50.832;4.346;2023-10-19T10:52:30;19.50;99.90
24338;DHT22;12457;50.832;4.346;2023-10-19T10:54:58;19.40;99.90
24338;DHT22;12457;50.832;4.346;2023-10-19T10:57:30;19.40;99.90
24338;DHT22;12457;50.832;4.346;2023-10-19T11:00:14;19.40;99.90
24338;DHT22;12457;50.832;4.346;2023-10-19T11:02:59;19.40;99.90
24338;DHT22;12457;50.832;4.346;2023-10-19T11:05:25;19.20;99.90
24338;DHT22;12457;50.832;4.346;2023-10-19T11:10:30;18.90;99.90
24338;DHT22;12457;50.832;4.346;2023-10-19T11:13:11;18.90;99.90
24338;DHT22;12457;50.832;4.346;2023-10-19T11:18:42;19.10;99.90
24338;DHT22;12457;50.832;4.346;2023-10-19T11:21:15;19.10;99.90
24338;DHT22;12457;50.832;4.346;2023-10-19T11:23:48;19.20;99.90
24338;DHT22;12457;50.832;4.346;2023-10-19T11:26:17;19.20;99.90
24338;DHT22;12457;50.832;4.346;2023-10-19T11:28:43;19.30;99.90
24338;DHT22;12457;50.832;4.346;2023-10-19T11:33:42;19.50;99.90
24338;DHT22;12457;50.832;4.346;2023-10-19T11:36:09;19.60;99.90
24338;DHT22;12457;50.832;4.346;2023-10-19T11:38:41;19.50;99.90
24338;DHT22;12457;50.832;4.346;2023-10-19T11:41:07;19.40;99.90
24338;DHT22;12457;50.832;4.346;2023-10-19T11:43:34;19.30;99.90
24338;DHT22;12457;50.832;4.346;2023-10-19T11:46:01;19.20;99.90
24338;DHT22;12457;50.832;4.346;2023-10-19T11:48:30;19.10;99.90
24338;DHT22;12457;50.832;4.346;2023-10-19T11:50:56;19.00;99.90
24338;DHT22;12457;50.832;4.346;2023-10-19T11:53:22;19.10;99.90
24338;DHT22;12457;50.832;4.346;2023-10-19T11:55:47;19.10;99.90
24338;DHT22;12457;50.832;4.346;2023-10-19T11:58:14;19.00;99.90
24338;DHT22;12457;50.832;4.346;2023-10-19T12:00:40;18.90;99.90
24338;DHT22;12457;50.832;4.346;2023-10-19T12:03:09;18.80;99.90
24338;DHT22;12457;50.832;4.346;2023-10-19T12:05:39;18.70;99.90
24338;DHT22;12457;50.832;4.346;2023-10-19T12:08:05;18.70;99.90
24338;DHT22;12457;50.832;4.346;2023-10-19T12:10:32;18.60;99.90
24338;DHT22;12457;50.832;4.346;2023-10-19T12:13:03;18.50;99.90
24338;DHT22;12457;50.832;4.346;2023-10-19T12:15:30;18.30;99.90
24338;DHT22;12457;50.832;4.346;2023-10-19T12:17:56;18.30;99.90
24338;DHT22;12457;50.832;4.346;2023-10-19T12:20:21;18.30;99.90
24338;DHT22;12457;50.832;4.346;2023-10-19T12:22:47;18.30;99.90
24338;DHT22;12457;50.832;4.346;2023-10-19T12:25:14;18.20;99.90
24338;DHT22;12457;50.832;4.346;2023-10-19T12:27:40;18.10;99.90
24338;DHT22;12457;50.832;4.346;2023-10-19T12:30:06;18.10;99.90
24338;DHT22;12457;50.832;4.346;2023-10-19T12:32:43;18.00;99.90
24338;DHT22;12457;50.832;4.346;2023-10-19T12:35:10;18.00;99.90
24338;DHT22;12457;50.832;4.346;2023-10-19T12:37:38;18.10;99.90
24338;DHT22;12457;50.832;4.346;2023-10-19T12:40:21;18.30;99.90
24338;DHT22;12457;50.832;4.346;2023-10-19T12:43:14;18.50;99.90
24338;DHT22;12457;50.832;4.346;2023-10-19T12:45:42;18.80;99.90
24338;DHT22;12457;50.832;4.346;2023-10-19T12:48:09;19.00;99.90
24338;DHT22;12457;50.832;4.346;2023-10-19T12:50:37;19.10;99.90
24338;DHT22;12457;50.832;4.346;2023-10-19T12:53:03;19.20;99.90
24338;DHT22;12457;50.832;4.346;2023-10-19T12:55:29;19.30;99.90
24338;DHT22;12457;50.832;4.346;2023-10-19T12:57:57;19.60;99.90
24338;DHT22;12457;50.832;4.346;2023-10-19T13:00:23;19.80;99.90
24338;DHT22;12457;50.832;4.346;2023-10-19T13:03:12;20.00;99.90
24338;DHT22;12457;50.832;4.346;2023-10-19T13:05:44;20.00;99.90
24338;DHT22;12457;50.832;4.346;2023-10-19T13:08:14;20.10;99.90
24338;DHT22;12457;50.832;4.346;2023-10-19T13:10:41;20.10;99.90
24338;DHT22;12457;50.832;4.346;2023-10-19T13:13:13;20.10;99.90
24338;DHT22;12457;50.832;4.346;2023-10-19T13:15:42;20.20;99.90
24338;DHT22;12457;50.832;4.346;2023-10-19T13:18:10;20.10;99.90
24338;DHT22;12457;50.832;4.346;2023-10-19T13:20:39;20.00;99.90
24338;DHT22;12457;50.832;4.346;2023-10-19T13:23:09;19.90;99.90
24338;DHT22;12457;50.832;4.346;2023-10-19T13:25:38;19.80;99.90
24338;DHT22;12457;50.832;4.346;2023-10-19T13:28:09;19.80;99.90
24338;DHT22;12457;50.832;4.346;2023-10-19T13:30:47;19.90;99.90
24338;DHT22;12457;50.832;4.346;2023-10-19T13:33:20;20.00;99.90
24338;DHT22;12457;50.832;4.346;2023-10-19T13:35:47;20.10;99.90
24338;DHT22;12457;50.832;4.346;2023-10-19T13:38:16;20.10;99.90
24338;DHT22;12457;50.832;4.346;2023-10-19T13:40:43;20.00;99.90
24338;DHT22;12457;50.832;4.346;2023-10-19T13:43:11;19.90;99.90
24338;DHT22;12457;50.832;4.346;2023-10-19T13:45:44;19.90;99.90
24338;DHT22;12457;50.832;4.346;2023-10-19T13:48:11;19.90;99.90
24338;DHT22;12457;50.832;4.346;2023-10-19T13:50:45;19.90;99.90
24338;DHT22;12457;50.832;4.346;2023-10-19T13:53:17;19.80;99.90
24338;DHT22;12457;50.832;4.346;2023-10-19T13:55:43;19.70;99.90
24338;DHT22;12457;50.832;4.346;2023-10-19T13:58:09;19.60;99.90
24338;DHT22;12457;50.832;4.346;2023-10-19T14:00:36;19.70;99.90
24338;DHT22;12457;50.832;4.346;2023-10-19T14:03:21;19.60;99.90
24338;DHT22;12457;50.832;4.346;2023-10-19T14:05:47;19.70;99.90
24338;DHT22;12457;50.832;4.346;2023-10-19T14:08:18;19.60;99.90
24338;DHT22;12457;50.832;4.346;2023-10-19T14:10:45;19.60;99.90
24338;DHT22;12457;50.832;4.346;2023-10-19T14:13:15;19.60;99.90
24338;DHT22;12457;50.832;4.346;2023-10-19T14:15:44;19.60;99.90
24338;DHT22;12457;50.832;4.346;2023-10-19T14:18:10;19.60;99.90
24338;DHT22;12457;50.832;4.346;2023-10-19T14:20:37;19.70;99.90
24338;DHT22;12457;50.832;4.346;2023-10-19T14:23:05;19.60;99.90
24338;DHT22;12457;50.832;4.346;2023-10-19T14:25:37;19.60;99.90
24338;DHT22;12457;50.832;4.346;2023-10-19T14:28:04;19.70;99.90
24338;DHT22;12457;50.832;4.346;2023-10-19T14:30:32;19.70;99.90
24338;DHT22;12457;50.832;4.346;2023-10-19T14:32:58;19.70;99.90
24338;DHT22;12457;50.832;4.346;2023-10-19T14:35:24;19.70;99.90
24338;DHT22;12457;50.832;4.346;2023-10-19T14:37:54;19.80;99.90
24338;DHT22;12457;50.832;4.346;2023-10-19T14:40:25;19.80;99.90
24338;DHT22;12457;50.832;4.346;2023-10-19T14:42:55;19.80;99.90
24338;DHT22;12457;50.832;4.346;2023-10-19T14:45:26;19.80;99.90
24338;DHT22;12457;50.832;4.346;2023-10-19T14:47:57;19.60;99.90
24338;DHT22;12457;50.832;4.346;2023-10-19T14:50:30;19.60;99.90
24338;DHT22;12457;50.832;4.346;2023-10-19T14:52:56;19.50;99.90
24338;DHT22;12457;50.832;4.346;2023-10-19T14:55:23;19.50;99.90
24338;DHT22;12457;50.832;4.346;2023-10-19T14:57:51;19.50;99.90
24338;DHT22;12457;50.832;4.346;2023-10-19T15:00:19;19.50;99.90
24338;DHT22;12457;50.832;4.346;2023-10-19T15:02:55;19.50;99.90
24338;DHT22;12457;50.832;4.346;2023-10-19T15:05:22;19.50;99.90
24338;DHT22;12457;50.832;4.346;2023-10-19T15:07:51;19.40;99.90
24338;DHT22;12457;50.832;4.346;2023-10-19T15:10:26;19.30;99.90
24338;DHT22;12457;50.832;4.346;2023-10-19T15:12:56;19.20;99.90
24338;DHT22;12457;50.832;4.346;2023-10-19T15:15:27;19.10;99.90
24338;DHT22;12457;50.832;4.346;2023-10-19T15:17:56;19.10;99.90
24338;DHT22;12457;50.832;4.346;2023-10-19T15:20:25;19.10;99.90
24338;DHT22;12457;50.832;4.346;2023-10-19T15:22:51;19.10;99.90
24338;DHT22;12457;50.832;4.346;2023-10-19T15:25:16;19.30;99.90
24338;DHT22;12457;50.832;4.346;2023-10-19T15:27:49;19.30;99.90
24338;DHT22;12457;50.832;4.346;2023-10-19T15:30:18;19.30;99.90
24338;DHT22;12457;50.832;4.346;2023-10-19T15:32:52;19.30;99.90
24338;DHT22;12457;50.832;4.346;2023-10-19T15:35:19;19.30;99.90
24338;DHT22;12457;50.832;4.346;2023-10-19T15:37:52;19.30;99.90
24338;DHT22;12457;50.832;4.346;2023-10-19T15:40:22;19.30;99.90
24338;DHT22;12457;50.832;4.346;2023-10-19T15:42:49;19.30;99.90
24338;DHT22;12457;50.832;4.346;2023-10-19T15:45:20;19.30;99.90
24338;DHT22;12457;50.832;4.346;2023-10-19T15:47:48;19.20;99.90
24338;DHT22;12457;50.832;4.346;2023-10-19T15:50:17;19.20;99.90
24338;DHT22;12457;50.832;4.346;2023-10-19T15:52:44;19.10;99.90
24338;DHT22;12457;50.832;4.346;2023-10-19T15:55:11;19.10;99.90
24338;DHT22;12457;50.832;4.346;2023-10-19T15:57:38;19.10;99.90
24338;DHT22;12457;50.832;4.346;2023-10-19T16:00:10;19.10;99.90
24338;DHT22;12457;50.832;4.346;2023-10-19T16:02:39;19.00;99.90
24338;DHT22;12457;50.832;4.346;2023-10-19T16:05:07;18.90;99.90
24338;DHT22;12457;50.832;4.346;2023-10-19T16:07:37;18.90;99.90
24338;DHT22;12457;50.832;4.346;2023-10-19T16:10:04;18.80;99.90
24338;DHT22;12457;50.832;4.346;2023-10-19T16:12:31;18.80;99.90
24338;DHT22;12457;50.832;4.346;2023-10-19T16:14:57;18.70;99.90